Time;durP1;ratioP1;P1;durP2;ratioP2;P2;SDS_P1;SDS_P2;PMS_P1;PMS_P2;Temp;Humidity;BMP_temperature;BMP_pressure;BME280_temperature;BME280_humidity;BME280_pressure;Samples;Min_cycle;Max_cycle;Signal;HPM_P1;HPM_P2
2022/04/27 00:00:43;;;;;;;;;;;;;;;15.77;55.83;102157.91;1037525;28;677;-60
2022/04/27 00:01:33;;;;;;;;;;;;;;;15.75;55.56;102159.88;1038602;28;650;-59
2022/04/27 00:02:24;;;;;;;;;;;;;;;15.75;55.52;102155.38;1037525;28;647;-60
2022/04/27 00:03:14;;;;;;;;;;;;;;;15.74;55.33;102158.16;1037611;28;651;-60
2022/04/27 00:04:05;;;;;;;;;;;;;;;15.73;55.82;102156.41;1037638;28;897;-60
2022/04/27 00:04:55;;;;;;;;;;;;;;;15.72;55.54;102154.69;1037515;28;650;-59
2022/04/27 00:05:45;;;;;;;;;;;;;;;15.76;55.70;102161.59;1037502;28;717;-58
2022/04/27 00:06:36;;;;;;;;;;;;;;;15.74;55.60;102152.78;1037571;28;824;-59
2022/04/27 00:07:27;;;;;;;;;;;;;;;15.74;55.47;102147.41;1037020;28;636;-59
2022/04/27 00:08:17;;;;;;;;;;;;;;;15.73;55.37;102154.59;1038884;28;669;-59
2022/04/27 00:09:08;;;;;;;;;;;;;;;15.71;55.72;102147.59;1037676;28;647;-60
2022/04/27 00:09:58;;;;;;;;;;;;;;;15.69;55.75;102154.88;1037053;28;682;-59
2022/04/27 00:10:49;;;;;;;;;;;;;;;15.70;55.72;102154.78;1036368;28;698;-59
2022/04/27 00:11:39;;;;;;;;;;;;;;;15.67;56.02;102148.75;1037521;28;659;-59
2022/04/27 00:12:29;;;;;;;;;;;;;;;15.67;55.83;102151.44;1036969;28;644;-59
2022/04/27 00:13:20;;;;;;;;;;;;;;;15.68;55.87;102156.72;1037035;28;701;-59
2022/04/27 00:14:10;;;;;;;;;;;;;;;15.67;55.85;102156.81;1038118;28;642;-59
2022/04/27 00:15:01;;;;;;;;;;;;;;;15.69;55.57;102152.19;1037584;28;631;-60
2022/04/27 00:15:51;;;;;;;;;;;;;;;15.69;55.90;102154.88;1034567;28;695;-59
2022/04/27 00:16:41;;;;;;;;;;;;;;;15.67;55.51;102146.94;1033864;28;803;-59
2022/04/27 00:17:32;;;;;;;;;;;;;;;15.69;55.72;102149.50;1037928;28;626;-59
2022/04/27 00:18:22;;;;;;;;;;;;;;;15.68;55.76;102145.97;1038331;28;612;-59
2022/04/27 00:19:13;;;;;;;;;;;;;;;15.66;55.52;102147.88;1037729;28;630;-64
2022/04/27 00:20:03;;;;;;;;;;;;;;;15.65;55.31;102143.47;1038327;28;665;-60
2022/04/27 00:20:53;;;;;;;;;;;;;;;15.63;55.88;102151.63;1038344;28;623;-59
2022/04/27 00:21:44;;;;;;;;;;;;;;;15.63;55.64;102148.94;1038062;28;642;-60
2022/04/27 00:22:34;;;;;;;;;;;;;;;15.65;55.47;102147.97;1038021;28;622;-62
2022/04/27 00:23:26;;;;;;;;;;;;;;;15.63;55.64;102146.25;1038144;28;681;-60
2022/04/27 00:24:17;;;;;;;;;;;;;;;15.66;55.80;102149.72;1037443;28;658;-59
2022/04/27 00:25:07;;;;;;;;;;;;;;;15.64;55.66;102147.13;1038165;28;733;-59
2022/04/27 00:25:58;;;;;;;;;;;;;;;15.61;55.30;102153.56;1038085;28;662;-59
2022/04/27 00:26:48;;;;;;;;;;;;;;;15.63;55.73;102148.94;1038038;28;689;-59
2022/04/27 00:27:39;;;;;;;;;;;;;;;15.62;55.83;102144.53;1038000;28;684;-59
2022/04/27 00:28:29;;;;;;;;;;;;;;;15.62;55.58;102144.53;1037985;28;658;-59
2022/04/27 00:29:20;;;;;;;;;;;;;;;15.59;55.39;102142.03;1038183;28;645;-60
2022/04/27 00:30:11;;;;;;;;;;;;;;;15.61;55.75;102148.19;1036499;28;778;-59
2022/04/27 00:31:01;;;;;;;;;;;;;;;15.60;55.54;102149.13;1038066;28;693;-59
2022/04/27 00:31:52;;;;;;;;;;;;;;;15.60;55.46;102145.59;1038050;28;583;-60
2022/04/27 00:32:42;;;;;;;;;;;;;;;15.65;55.53;102147.97;1037965;28;706;-60
2022/04/27 00:33:32;;;;;;;;;;;;;;;15.63;55.18;102151.63;1038175;28;598;-60
2022/04/27 00:34:23;;;;;;;;;;;;;;;15.59;55.71;102150.09;1038049;28;720;-60
2022/04/27 00:35:13;;;;;;;;;;;;;;;15.59;55.57;102152.78;1033847;28;662;-59
2022/04/27 00:36:04;;;;;;;;;;;;;;;15.58;55.58;102153.78;1035586;28;1749;-59
2022/04/27 00:36:54;;;;;;;;;;;;;;;15.61;55.46;102152.69;1041431;28;793;-59
2022/04/27 00:37:45;;;;;;;;;;;;;;;15.58;55.49;102153.78;1042067;28;602;-59
2022/04/27 00:38:35;;;;;;;;;;;;;;;15.56;55.57;102152.16;1041601;28;626;-59
2022/04/27 00:39:25;;;;;;;;;;;;;;;15.56;55.40;102150.31;1042172;28;644;-59
2022/04/27 00:40:16;;;;;;;;;;;;;;;15.56;55.64;102153.00;1042064;28;665;-60
2022/04/27 00:41:06;;;;;;;;;;;;;;;15.55;55.82;102153.97;1042112;28;673;-59
2022/04/27 00:41:59;;;;;;;;;;;;;;;15.56;55.75;102154.84;1042046;28;716;-60
2022/04/27 00:42:50;;;;;;;;;;;;;;;15.55;55.46;102153.97;1037708;28;668;-60
2022/04/27 00:43:41;;;;;;;;;;;;;;;15.51;55.20;102163.16;1036502;28;681;-60
2022/04/27 00:44:31;;;;;;;;;;;;;;;15.50;55.42;102153.38;1041516;28;720;-61
2022/04/27 00:45:22;;;;;;;;;;;;;;;15.50;55.33;102150.69;1041547;28;689;-61
2022/04/27 00:46:12;;;;;;;;;;;;;;;15.49;55.81;102156.16;1040935;28;651;-61
2022/04/27 00:47:03;;;;;;;;;;;;;;;15.48;55.74;102159.78;1042140;28;662;-61
2022/04/27 00:47:53;;;;;;;;;;;;;;;15.48;55.21;102155.28;1042043;28;649;-61
2022/04/27 00:48:44;;;;;;;;;;;;;;;15.48;55.34;102157.09;1042124;28;625;-61
2022/04/27 00:49:34;;;;;;;;;;;;;;;15.51;55.51;102156.91;1041952;28;2007;-61
2022/04/27 00:50:24;;;;;;;;;;;;;;;15.49;55.64;102159.69;1042080;28;760;-61
2022/04/27 00:51:15;;;;;;;;;;;;;;;15.49;55.40;102150.78;1038007;28;709;-61
2022/04/27 00:52:05;;;;;;;;;;;;;;;15.48;55.55;102157.97;1037887;28;722;-60
2022/04/27 00:52:56;;;;;;;;;;;;;;;15.47;55.50;102156.25;1037436;28;618;-60
2022/04/27 00:53:46;;;;;;;;;;;;;;;15.49;55.72;102156.16;1037953;28;666;-60
2022/04/27 00:54:36;;;;;;;;;;;;;;;15.47;55.80;102161.63;1037360;28;721;-60
2022/04/27 00:55:27;;;;;;;;;;;;;;;15.45;55.36;102160.00;1037403;28;1736;-60
2022/04/27 00:56:18;;;;;;;;;;;;;;;15.43;55.48;102157.41;1042028;28;647;-60
2022/04/27 00:57:08;;;;;;;;;;;;;;;15.42;55.13;102158.34;1041952;28;705;-60
2022/04/27 00:57:59;;;;;;;;;;;;;;;15.42;55.12;102157.50;1042084;28;677;-60
2022/04/27 00:58:50;;;;;;;;;;;;;;;15.41;55.68;102162.00;1041426;28;693;-60
2022/04/27 00:59:41;;;;;;;;;;;;;;;15.41;55.58;102155.75;1041971;28;653;-60
2022/04/27 01:00:31;;;;;;;;;;;;;;;15.42;55.47;102160.19;1041616;28;639;-60
2022/04/27 01:01:22;;;;;;;;;;;;;;;15.41;55.45;102163.81;1040993;28;650;-60
2022/04/27 01:02:12;;;;;;;;;;;;;;;15.39;55.19;102163.94;1042023;28;677;-59
2022/04/27 01:03:02;;;;;;;;;;;;;;;15.41;55.23;102159.31;1040981;28;657;-59
2022/04/27 01:03:53;;;;;;;;;;;;;;;15.41;55.48;102161.13;1041962;28;812;-59
2022/04/27 01:04:44;;;;;;;;;;;;;;;15.39;55.74;102163.94;1041414;28;634;-59
2022/04/27 01:05:34;;;;;;;;;;;;;;;15.39;55.64;102161.28;1042054;28;700;-59
2022/04/27 01:06:24;;;;;;;;;;;;;;;15.39;55.20;102158.59;1037686;28;721;-59
2022/04/27 01:07:15;;;;;;;;;;;;;;;15.40;55.76;102160.31;1037067;28;650;-59
2022/04/27 01:08:05;;;;;;;;;;;;;;;15.39;55.34;102158.59;1041341;28;661;-59
2022/04/27 01:08:56;;;;;;;;;;;;;;;15.39;55.70;102157.72;1041980;28;594;-59
2022/04/27 01:09:46;;;;;;;;;;;;;;;15.39;55.10;102161.28;1041910;28;1910;-58
2022/04/27 01:10:36;;;;;;;;;;;;;;;15.38;55.39;102158.69;1040878;28;678;-59
2022/04/27 01:11:27;;;;;;;;;;;;;;;15.39;55.45;102163.94;1041957;28;665;-58
2022/04/27 01:12:17;;;;;;;;;;;;;;;15.38;55.07;102159.53;1041995;28;661;-58
2022/04/27 01:13:08;;;;;;;;;;;;;;;15.38;55.15;102156.84;1037590;28;658;-60
2022/04/27 01:13:58;;;;;;;;;;;;;;;15.39;55.13;102163.09;1037156;28;630;-60
2022/04/27 01:14:49;;;;;;;;;;;;;;;15.37;55.59;102157.81;1040876;28;670;-59
2022/04/27 01:15:39;;;;;;;;;;;;;;;15.35;55.66;102159.72;1033491;28;642;-59
2022/04/27 01:16:29;;;;;;;;;;;;;;;15.36;55.14;102158.78;1033691;28;814;-58
2022/04/27 01:17:20;;;;;;;;;;;;;;;15.34;55.68;102160.69;1036065;28;832;-59
2022/04/27 01:18:11;;;;;;;;;;;;;;;15.34;54.98;102155.31;1033669;28;750;-59
2022/04/27 01:19:01;;;;;;;;;;;;;;;15.32;55.26;102159.91;1033017;28;847;-59
2022/04/27 01:19:51;;;;;;;;;;;;;;;15.31;55.13;102158.19;1033549;28;719;-59
2022/04/27 01:20:44;;;;;;;;;;;;;;;15.31;55.07;102158.19;1033634;28;725;-59
2022/04/27 01:21:35;;;;;;;;;;;;;;;15.29;55.69;102160.97;1037273;28;717;-59
2022/04/27 01:22:25;;;;;;;;;;;;;;;15.30;55.30;102159.16;1036906;28;701;-59
2022/04/27 01:23:16;;;;;;;;;;;;;;;15.31;55.05;102168.94;1037864;28;755;-59
2022/04/27 01:24:06;;;;;;;;;;;;;;;15.30;55.22;102161.84;1037827;28;614;-59
2022/04/27 01:24:57;;;;;;;;;;;;;;;15.30;55.27;102161.84;1033566;28;749;-59
2022/04/27 01:25:48;;;;;;;;;;;;;;;15.30;55.52;102159.16;1033871;28;667;-59
2022/04/27 01:26:38;;;;;;;;;;;;;;;15.29;55.13;102162.78;1038499;28;686;-59
2022/04/27 01:27:29;;;;;;;;;;;;;;;15.27;55.16;102160.22;1039015;28;618;-59
2022/04/27 01:28:19;;;;;;;;;;;;;;;15.28;55.38;102161.06;1038668;28;700;-59
2022/04/27 01:29:10;;;;;;;;;;;;;;;15.25;55.11;102162.13;1038532;28;575;-58
2022/04/27 01:30:00;;;;;;;;;;;;;;;15.26;55.24;102162.97;1039111;28;744;-59
2022/04/27 01:30:50;;;;;;;;;;;;;;;15.25;55.56;102162.13;1038584;28;717;-59
2022/04/27 01:31:41;;;;;;;;;;;;;;;15.27;55.33;102162.03;1038614;28;653;-58
2022/04/27 01:32:31;;;;;;;;;;;;;;;15.27;55.57;102170.09;1037428;28;706;-59
2022/04/27 01:33:22;;;;;;;;;;;;;;;15.26;55.40;102163.84;1038264;28;677;-59
2022/04/27 01:34:12;;;;;;;;;;;;;;;15.26;55.55;102168.34;1037414;28;654;-59
2022/04/27 01:35:03;;;;;;;;;;;;;;;15.24;55.26;102165.75;1039436;28;1666;-59
2022/04/27 01:35:53;;;;;;;;;;;;;;;15.24;55.35;102164.91;1041431;28;736;-59
2022/04/27 01:36:44;;;;;;;;;;;;;;;15.22;55.11;102169.53;1041520;28;693;-59
2022/04/27 01:38:43;;;;;;;;;;;;;;;15.21;55.42;102165.13;1037549;28;650;-60
2022/04/27 01:39:35;;;;;;;;;;;;;;;15.21;55.37;102163.31;1041931;28;653;-59
2022/04/27 01:40:26;;;;;;;;;;;;;;;15.21;55.45;102170.50;1041329;28;701;-59
2022/04/27 01:41:16;;;;;;;;;;;;;;;15.22;55.15;102166.84;1041345;28;854;-59
2022/04/27 01:42:07;;;;;;;;;;;;;;;15.21;55.02;102173.19;1041904;28;614;-59
2022/04/27 01:42:58;;;;;;;;;;;;;;;15.20;55.26;102164.25;1041794;28;748;-59
2022/04/27 01:43:48;;;;;;;;;;;;;;;15.21;55.66;102170.50;1040631;28;622;-59
2022/04/27 01:44:39;;;;;;;;;;;;;;;15.20;55.13;102169.63;1041246;28;666;-59
2022/04/27 01:45:29;;;;;;;;;;;;;;;15.21;55.43;102176.72;1041348;28;961;-59
2022/04/27 01:46:20;;;;;;;;;;;;;;;15.20;54.94;102168.75;1041924;28;630;-59
2022/04/27 01:47:10;;;;;;;;;;;;;;;15.21;55.36;102170.50;1041823;28;681;-59
2022/04/27 01:48:00;;;;;;;;;;;;;;;15.19;55.44;102167.91;1041832;28;775;-59
2022/04/27 01:48:51;;;;;;;;;;;;;;;15.19;55.06;102172.41;1041746;28;709;-59
2022/04/27 01:49:41;;;;;;;;;;;;;;;15.21;54.99;102173.19;1041761;28;1965;-59
2022/04/27 01:50:32;;;;;;;;;;;;;;;15.20;55.04;102168.75;1042243;28;1317;-59
2022/04/27 01:54:14;;;;;;;;;;;;;;;15.19;54.95;102172.41;1043404;28;611;-59
2022/04/27 01:54:51;;;;;;;;;;;;;;;15.16;54.99;102173.47;1041055;28;1605;-59
2022/04/27 01:55:41;;;;;;;;;;;;;;;15.16;55.35;102173.47;1041741;28;622;-59
2022/04/27 01:56:32;;;;;;;;;;;;;;;15.16;55.45;102176.16;1041140;28;1186;-58
2022/04/27 01:57:22;;;;;;;;;;;;;;;15.16;55.17;102177.97;1041721;28;720;-59
2022/04/27 01:58:13;;;;;;;;;;;;;;;15.15;55.09;102179.78;1041842;28;626;-60
2022/04/27 01:59:03;;;;;;;;;;;;;;;15.14;54.96;102180.75;1040905;28;1665;-60
2022/04/27 01:59:55;;;;;;;;;;;;;;;15.14;55.22;102177.19;1041299;28;645;-60
2022/04/27 02:00:47;;;;;;;;;;;;;;;15.16;55.27;102183.34;1041261;28;642;-60
2022/04/27 02:01:38;;;;;;;;;;;;;;;15.18;55.05;102182.28;1041232;28;709;-60
2022/04/27 02:02:28;;;;;;;;;;;;;;;15.17;54.98;102183.25;1041872;28;634;-60
2022/04/27 02:03:18;;;;;;;;;;;;;;;15.16;54.90;102186.03;1041662;28;658;-60
2022/04/27 02:04:09;;;;;;;;;;;;;;;15.15;55.19;102186.97;1041183;28;626;-59
2022/04/27 02:04:59;;;;;;;;;;;;;;;15.14;55.53;102177.19;1037414;28;1554;-60
2022/04/27 02:05:50;;;;;;;;;;;;;;;15.13;55.13;102187.06;1035181;28;605;-60
2022/04/27 02:06:42;;;;;;;;;;;;;;;15.14;55.14;102183.44;1038323;28;725;-59
2022/04/27 02:07:32;;;;;;;;;;;;;;;15.13;54.75;102189.75;1041282;28;662;-60
2022/04/27 02:08:22;;;;;;;;;;;;;;;15.14;55.25;102199.53;1041696;28;646;-60
2022/04/27 02:09:13;;;;;;;;;;;;;;;15.16;55.23;102186.88;1037371;28;666;-60
2022/04/27 02:10:05;;;;;;;;;;;;;;;15.18;55.01;102190.34;1036907;28;670;-61
2022/04/27 02:10:56;;;;;;;;;;;;;;;15.18;55.25;102193.03;1041193;28;638;-60
2022/04/27 02:11:46;;;;;;;;;;;;;;;15.15;55.37;102189.66;1041283;28;678;-61
2022/04/27 02:12:37;;;;;;;;;;;;;;;15.15;55.27;102190.53;1041838;28;689;-61
2022/04/27 02:13:27;;;;;;;;;;;;;;;15.13;55.36;102184.38;1041835;28;653;-61
2022/04/27 02:14:18;;;;;;;;;;;;;;;15.14;55.18;102196.84;1040891;28;1760;-61
2022/04/27 02:15:09;;;;;;;;;;;;;;;15.11;55.29;102190.81;1036533;28;678;-61
2022/04/27 02:16:00;;;;;;;;;;;;;;;15.11;55.22;102196.19;1037007;28;643;-60
2022/04/27 02:16:51;;;;;;;;;;;;;;;15.10;54.82;102194.44;1037088;28;702;-60
2022/04/27 02:17:41;;;;;;;;;;;;;;;15.11;54.91;102193.50;1037068;28;679;-60
2022/04/27 02:18:32;;;;;;;;;;;;;;;15.10;54.50;102194.44;1036055;28;601;-60
2022/04/27 02:19:22;;;;;;;;;;;;;;;15.09;55.22;102198.09;1037053;28;653;-60
2022/04/27 02:20:13;;;;;;;;;;;;;;;15.10;55.18;102195.31;1035898;28;651;-60
2022/04/27 02:21:03;;;;;;;;;;;;;;;15.09;54.88;102190.03;1037573;28;721;-60
2022/04/27 02:21:54;;;;;;;;;;;;;;;15.09;55.22;102193.59;1037086;28;651;-60
2022/04/27 02:22:44;;;;;;;;;;;;;;;15.09;54.80;102190.91;1037164;28;929;-60
2022/04/27 02:23:35;;;;;;;;;;;;;;;15.09;55.25;102193.59;1037007;28;646;-61
2022/04/27 02:24:26;;;;;;;;;;;;;;;15.09;54.90;102192.72;1036997;28;650;-61
2022/04/27 02:25:17;;;;;;;;;;;;;;;15.07;55.26;102197.31;1036558;28;631;-61
2022/04/27 02:26:07;;;;;;;;;;;;;;;15.08;55.42;102191.00;1036432;28;675;-61
2022/04/27 02:26:57;;;;;;;;;;;;;;;15.13;55.23;102188.91;1037055;28;691;-61
2022/04/27 02:27:49;;;;;;;;;;;;;;;15.12;54.99;102195.22;1037093;28;697;-60
2022/04/27 02:28:39;;;;;;;;;;;;;;;15.12;54.84;102190.72;1038142;28;690;-61
2022/04/27 02:29:30;;;;;;;;;;;;;;;15.10;54.94;102198.00;1037038;28;1899;-61
2022/04/27 02:30:20;;;;;;;;;;;;;;;15.09;54.94;102192.72;1036929;28;691;-60
2022/04/27 02:31:11;;;;;;;;;;;;;;;15.08;54.86;102196.38;1035896;28;659;-61
2022/04/27 02:32:01;;;;;;;;;;;;;;;15.11;54.99;102198.88;1037125;28;670;-61
2022/04/27 02:32:52;;;;;;;;;;;;;;;15.12;54.62;102198.78;1033292;28;635;-60
2022/04/27 02:33:42;;;;;;;;;;;;;;;15.10;54.10;102202.50;1034718;28;1654;-61
2022/04/27 02:34:32;;;;;;;;;;;;;;;15.09;54.90;102200.78;1041102;28;685;-60
2022/04/27 02:35:23;;;;;;;;;;;;;;;15.07;55.13;102202.69;1041889;28;691;-60
2022/04/27 02:36:13;;;;;;;;;;;;;;;15.07;55.21;102200.00;1041660;28;646;-59
2022/04/27 02:37:06;;;;;;;;;;;;;;;15.07;54.68;102200.00;1040696;28;673;-60
2022/04/27 02:37:56;;;;;;;;;;;;;;;15.05;54.78;102197.41;1040617;28;972;-60
2022/04/27 02:38:46;;;;;;;;;;;;;;;15.06;55.16;102203.66;1039031;28;692;-59
2022/04/27 02:39:37;;;;;;;;;;;;;;;15.06;54.83;102198.28;1041123;28;718;-59
2022/04/27 02:40:27;;;;;;;;;;;;;;;15.06;54.76;102199.16;1041230;28;654;-59
2022/04/27 02:41:18;;;;;;;;;;;;;;;15.06;54.88;102196.47;1041781;28;736;-59
2022/04/27 02:42:08;;;;;;;;;;;;;;;15.04;54.74;102201.09;1041753;28;689;-59
2022/04/27 02:42:58;;;;;;;;;;;;;;;15.02;54.98;102200.31;1041114;28;748;-59
2022/04/27 02:43:49;;;;;;;;;;;;;;;15.01;54.68;102211.16;1041790;28;704;-59
2022/04/27 02:44:39;;;;;;;;;;;;;;;15.01;54.74;102203.09;1041255;28;626;-59
2022/04/27 02:45:30;;;;;;;;;;;;;;;15.01;55.08;102211.16;1041704;28;709;-59
2022/04/27 02:46:20;;;;;;;;;;;;;;;15.02;55.24;102208.38;1037300;28;693;-59
2022/04/27 02:47:11;;;;;;;;;;;;;;;15.02;54.67;102205.69;1036681;28;1105;-59
2022/04/27 02:48:01;;;;;;;;;;;;;;;15.01;55.02;102209.31;1040955;28;669;-60
2022/04/27 02:52:19;;;;;;;;;;;;;;;14.99;55.22;102208.56;1037033;28;647;-59
2022/04/27 02:53:10;;;;;;;;;;;;;;;14.97;54.69;102204.22;1037626;28;1646;-60
2022/04/27 02:54:00;;;;;;;;;;;;;;;14.97;55.14;102209.59;1041090;28;1092;-59
2022/04/27 02:54:51;;;;;;;;;;;;;;;14.96;54.63;102214.09;1041215;28;658;-60
2022/04/27 02:55:41;;;;;;;;;;;;;;;14.96;55.19;102216.78;1041482;28;733;-59
2022/04/27 02:56:32;;;;;;;;;;;;;;;14.96;54.79;102208.75;1037228;28;1147;-59
2022/04/27 02:57:22;;;;;;;;;;;;;;;14.98;54.66;102208.66;1036611;28;668;-60
2022/04/27 02:58:13;;;;;;;;;;;;;;;14.96;55.22;102207.88;1040975;28;626;-60
2022/04/27 02:59:03;;;;;;;;;;;;;;;14.95;54.82;102209.69;1041134;28;737;-59
2022/04/27 02:59:54;;;;;;;;;;;;;;;14.96;54.86;102210.56;1041753;28;661;-59
2022/04/27 03:00:44;;;;;;;;;;;;;;;14.94;54.71;102219.56;1041118;28;709;-59
2022/04/27 03:01:35;;;;;;;;;;;;;;;14.95;54.78;102220.44;1040370;28;871;-59
2022/04/27 03:02:25;;;;;;;;;;;;;;;14.96;55.22;102218.63;1037191;28;693;-59
2022/04/27 03:03:16;;;;;;;;;;;;;;;14.95;54.71;102217.75;1036599;28;642;-59
2022/04/27 03:04:06;;;;;;;;;;;;;;;14.96;54.70;102210.56;1040915;28;677;-59
2022/04/27 03:04:57;;;;;;;;;;;;;;;14.94;54.98;102216.88;1037177;28;732;-59
2022/04/27 03:05:47;;;;;;;;;;;;;;;14.93;54.80;102214.28;1036602;28;642;-59
2022/04/27 03:06:37;;;;;;;;;;;;;;;14.95;54.91;102217.75;1036668;28;659;-60
2022/04/27 03:07:28;;;;;;;;;;;;;;;14.93;55.10;102217.84;1041198;28;623;-60
2022/04/27 03:08:18;;;;;;;;;;;;;;;14.93;54.59;102215.16;1041460;28;646;-61
2022/04/27 03:09:09;;;;;;;;;;;;;;;14.90;54.66;102209.09;1041033;28;642;-60
2022/04/27 03:09:59;;;;;;;;;;;;;;;14.93;54.97;102219.66;1041399;28;1909;-60
2022/04/27 03:10:50;;;;;;;;;;;;;;;14.94;54.47;102216.88;1041724;28;705;-60
2022/04/27 03:11:40;;;;;;;;;;;;;;;14.93;55.05;102225.03;1041647;28;658;-60
2022/04/27 03:12:30;;;;;;;;;;;;;;;14.92;54.65;102216.13;1041085;28;717;-60
2022/04/27 03:13:21;;;;;;;;;;;;;;;14.92;54.59;102215.25;1037477;28;1549;-60
2022/04/27 03:14:11;;;;;;;;;;;;;;;14.90;54.44;102225.22;1036470;28;678;-60
2022/04/27 03:15:02;;;;;;;;;;;;;;;14.89;55.00;102213.59;1036889;28;1673;-60
2022/04/27 03:15:52;;;;;;;;;;;;;;;14.89;54.43;102216.28;1036939;28;638;-60
2022/04/27 03:16:43;;;;;;;;;;;;;;;14.90;54.97;102220.69;1036941;28;690;-60
2022/04/27 03:17:33;;;;;;;;;;;;;;;14.89;55.01;102224.34;1036969;28;631;-60
2022/04/27 03:18:24;;;;;;;;;;;;;;;14.87;54.99;102220.03;1036416;28;611;-61
2022/04/27 03:19:14;;;;;;;;;;;;;;;14.84;54.84;102214.88;1036851;28;639;-60
2022/04/27 03:20:04;;;;;;;;;;;;;;;14.84;54.40;102212.19;1036893;28;670;-60
2022/04/27 03:20:55;;;;;;;;;;;;;;;14.82;55.08;102220.31;1036818;28;784;-60
2022/04/27 03:21:45;;;;;;;;;;;;;;;14.82;54.60;102212.28;1036887;28;674;-60
2022/04/27 03:22:36;;;;;;;;;;;;;;;14.82;54.96;102220.31;1036041;28;695;-60
2022/04/27 03:23:28;;;;;;;;;;;;;;;14.82;55.00;102220.31;1036808;28;651;-59
2022/04/27 03:24:18;;;;;;;;;;;;;;;14.82;54.59;102217.66;1033010;28;635;-60
2022/04/27 03:25:09;;;;;;;;;;;;;;;14.84;54.97;102218.41;1031518;28;694;-60
2022/04/27 03:25:59;;;;;;;;;;;;;;;14.83;54.43;102219.38;1036267;28;670;-60
2022/04/27 03:26:50;;;;;;;;;;;;;;;14.85;54.60;102217.47;1038286;28;701;-60
2022/04/27 03:27:40;;;;;;;;;;;;;;;14.84;54.97;102215.72;1037810;28;694;-59
2022/04/27 03:28:30;;;;;;;;;;;;;;;14.83;54.99;102218.50;1037656;28;951;-60
2022/04/27 03:29:21;;;;;;;;;;;;;;;14.82;54.53;102211.41;1037719;28;709;-60
2022/04/27 03:30:11;;;;;;;;;;;;;;;14.84;55.05;102221.09;1037725;28;682;-60
2022/04/27 03:31:02;;;;;;;;;;;;;;;14.81;54.81;102212.38;1037629;28;717;-60
2022/04/27 03:31:52;;;;;;;;;;;;;;;14.81;54.95;102213.22;1037839;28;667;-60
2022/04/27 03:32:43;;;;;;;;;;;;;;;14.80;54.74;102211.50;1037750;28;1712;-60
2022/04/27 03:33:33;;;;;;;;;;;;;;;14.79;54.44;102212.47;1042475;28;731;-60
2022/04/27 03:34:24;;;;;;;;;;;;;;;14.79;55.15;102220.50;1041064;28;780;-59
2022/04/27 03:35:14;;;;;;;;;;;;;;;14.78;54.56;102210.72;1042256;28;697;-60
2022/04/27 03:36:06;;;;;;;;;;;;;;;14.79;54.44;102211.59;1041935;28;701;-61
2022/04/27 03:36:56;;;;;;;;;;;;;;;14.77;55.22;102214.38;1041751;28;740;-60
2022/04/27 03:37:47;;;;;;;;;;;;;;;14.77;54.91;102216.19;1042452;28;666;-61
2022/04/27 03:38:38;;;;;;;;;;;;;;;14.75;54.44;102215.41;1042266;28;662;-61
2022/04/27 03:39:28;;;;;;;;;;;;;;;14.74;54.55;102209.19;1041763;28;635;-61
2022/04/27 03:40:21;;;;;;;;;;;;;;;14.76;55.00;102212.63;1042312;28;647;-61
2022/04/27 03:41:14;;;;;;;;;;;;;;;14.77;54.93;102208.13;1041717;28;667;-61
2022/04/27 03:42:04;;;;;;;;;;;;;;;14.77;54.42;102209.00;1037562;28;662;-61
2022/04/27 03:42:55;;;;;;;;;;;;;;;14.79;54.58;102206.22;1037449;28;745;-61
2022/04/27 03:43:45;;;;;;;;;;;;;;;14.78;54.61;102212.53;1037378;28;654;-61
2022/04/27 03:44:36;;;;;;;;;;;;;;;14.76;54.49;102212.63;1038036;28;657;-61
2022/04/27 03:45:26;;;;;;;;;;;;;;;14.75;54.70;102216.28;1041704;28;657;-61
2022/04/27 03:46:19;;;;;;;;;;;;;;;14.75;54.67;102210.91;1042438;28;626;-61
2022/04/27 03:47:10;;;;;;;;;;;;;;;14.76;54.72;102209.09;1040953;28;706;-61
2022/04/27 03:48:00;;;;;;;;;;;;;;;14.74;54.84;102217.22;1041866;28;711;-61
2022/04/27 03:48:50;;;;;;;;;;;;;;;14.72;54.55;102210.22;1043624;28;688;-61
2022/04/27 03:49:41;;;;;;;;;;;;;;;14.71;54.60;102217.41;1042943;28;1893;-61
2022/04/27 03:50:31;;;;;;;;;;;;;;;14.72;54.87;102212.91;1046599;28;1260;-61
2022/04/27 03:51:22;;;;;;;;;;;;;;;14.72;54.71;102216.47;1049483;28;710;-61
2022/04/27 03:52:12;;;;;;;;;;;;;;;14.71;54.95;102212.03;1047967;28;1763;-60
2022/04/27 03:53:02;;;;;;;;;;;;;;;14.72;54.84;102218.28;1038140;28;756;-61
2022/04/27 03:53:53;;;;;;;;;;;;;;;14.70;54.12;102217.50;1038966;28;673;-61
2022/04/27 03:54:44;;;;;;;;;;;;;;;14.71;54.51;102225.47;1037742;28;747;-61
2022/04/27 03:55:34;;;;;;;;;;;;;;;14.71;54.50;102212.03;1038263;28;610;-61
2022/04/27 03:56:24;;;;;;;;;;;;;;;14.67;55.04;102217.72;1038123;28;668;-61
2022/04/27 03:57:15;;;;;;;;;;;;;;;14.67;54.40;102218.56;1038281;28;681;-61
2022/04/27 03:58:05;;;;;;;;;;;;;;;14.70;54.95;102221.03;1038160;28;697;-60
2022/04/27 03:58:57;;;;;;;;;;;;;;;14.72;54.74;102216.47;1033992;28;678;-61
2022/04/27 03:59:48;;;;;;;;;;;;;;;14.80;54.05;102213.31;1033364;28;681;-61
2022/04/27 04:00:38;;;;;;;;;;;;;;;14.86;53.55;102224.56;1037585;28;731;-60
2022/04/27 04:01:29;;;;;;;;;;;;;;;14.96;54.29;102224.84;1037677;28;819;-60
2022/04/27 04:02:19;;;;;;;;;;;;;;;15.02;54.12;102216.44;1038251;28;831;-61
2022/04/27 04:03:11;;;;;;;;;;;;;;;15.14;54.06;102217.47;1037717;28;726;-61
2022/04/27 04:04:02;;;;;;;;;;;;;;;15.24;53.49;102218.63;1037491;28;687;-61
2022/04/27 04:04:52;;;;;;;;;;;;;;;15.35;53.09;102213.44;1038286;28;627;-61
2022/04/27 04:05:42;;;;;;;;;;;;;;;15.45;52.94;102217.25;1038040;28;677;-61
2022/04/27 04:06:33;;;;;;;;;;;;;;;15.56;52.33;102220.19;1038129;28;713;-61
2022/04/27 04:07:24;;;;;;;;;;;;;;;15.66;52.00;102214.22;1036890;28;646;-60
2022/04/27 04:08:14;;;;;;;;;;;;;;;15.74;51.92;102218.13;1038153;28;693;-61
2022/04/27 04:09:05;;;;;;;;;;;;;;;15.84;51.52;102221.06;1037720;28;685;-61
2022/04/27 04:09:55;;;;;;;;;;;;;;;15.97;51.30;102224.69;1038126;28;1914;-60
2022/04/27 04:10:46;;;;;;;;;;;;;;;16.05;51.48;102217.00;1038093;28;714;-61
2022/04/27 04:11:36;;;;;;;;;;;;;;;16.17;51.39;102223.38;1037592;28;631;-60
2022/04/27 04:12:26;;;;;;;;;;;;;;;16.26;50.91;102223.63;1038037;28;734;-61
2022/04/27 04:13:17;;;;;;;;;;;;;;;16.31;50.74;102224.16;1037515;28;741;-60
2022/04/27 04:14:07;;;;;;;;;;;;;;;16.41;50.72;102226.25;1037616;28;682;-60
2022/04/27 04:14:58;;;;;;;;;;;;;;;16.49;50.42;102221.19;1037654;28;647;-61
2022/04/27 04:15:49;;;;;;;;;;;;;;;16.54;50.46;102229.84;1037626;28;706;-60
2022/04/27 04:16:40;;;;;;;;;;;;;;;16.59;50.28;102227.69;1037549;28;661;-60
2022/04/27 04:17:30;;;;;;;;;;;;;;;16.63;49.98;102222.03;1033241;28;630;-60
2022/04/27 04:18:21;;;;;;;;;;;;;;;16.73;49.76;102219.56;1033241;28;686;-60
2022/04/27 04:19:11;;;;;;;;;;;;;;;16.80;49.62;102226.25;1037639;28;679;-59
2022/04/27 04:20:02;;;;;;;;;;;;;;;16.92;49.26;102228.09;1037623;28;690;-60
2022/04/27 04:20:52;;;;;;;;;;;;;;;16.99;49.44;102240.19;1037498;28;650;-60
2022/04/27 04:21:43;;;;;;;;;;;;;;;17.07;49.35;102230.69;1037622;28;639;-59
2022/04/27 04:22:33;;;;;;;;;;;;;;;17.14;49.09;102242.75;1037680;28;638;-60
2022/04/27 04:23:23;;;;;;;;;;;;;;;17.21;48.77;102230.56;1037535;28;682;-60
2022/04/27 04:24:14;;;;;;;;;;;;;;;17.26;48.84;102236.50;1037743;28;776;-60
2022/04/27 04:28:31;;;;;;;;;;;;;;;17.33;48.61;102235.97;1038105;28;661;-59
2022/04/27 04:29:22;;;;;;;;;;;;;;;17.34;49.13;102239.53;1037607;28;646;-60
2022/04/27 04:30:12;;;;;;;;;;;;;;;17.37;49.07;102241.13;1037526;28;721;-60
2022/04/27 04:31:03;;;;;;;;;;;;;;;17.35;48.81;102243.94;1037136;28;673;-59
2022/04/27 04:31:53;;;;;;;;;;;;;;;17.37;48.61;102236.63;1039647;28;1741;-59
2022/04/27 04:32:43;;;;;;;;;;;;;;;17.38;48.82;102243.69;1042090;28;633;-60
2022/04/27 04:33:34;;;;;;;;;;;;;;;17.35;48.89;102249.34;1041839;28;1717;-60
2022/04/27 04:34:24;;;;;;;;;;;;;;;17.33;48.80;102245.88;1037731;28;657;-60
2022/04/27 04:35:15;;;;;;;;;;;;;;;17.28;49.08;102246.19;1037274;28;668;-59
2022/04/27 04:36:05;;;;;;;;;;;;;;;17.25;49.41;102245.53;1041448;28;676;-60
2022/04/27 04:36:56;;;;;;;;;;;;;;;17.24;49.69;102241.13;1042102;28;674;-60